Time;durP1;ratioP1;P1;durP2;ratioP2;P2;SDS_P1;SDS_P2;PMS_P1;PMS_P2;Temp;Humidity;BMP_temperature;BMP_pressure;BME280_temperature;BME280_humidity;BME280_pressure;Samples;Min_cycle;Max_cycle;Signal;HPM_P1;HPM_P2
2023/04/14 00:00:32;;;;;;;6.90;2.60;;;4.60;99.90;;;;;;5043987;28;20063;-91
2023/04/14 00:02:58;;;;;;;8.52;3.10;;;4.50;99.90;;;;;;5027778;28;20355;-91
2023/04/14 00:05:30;;;;;;;10.30;2.97;;;4.40;99.90;;;;;;5044633;28;20033;-92
2023/04/14 00:07:56;;;;;;;8.95;3.10;;;4.40;99.90;;;;;;5060480;28;20110;-91
2023/04/14 00:10:22;;;;;;;5.97;2.92;;;4.40;99.90;;;;;;5044967;28;20215;-91
2023/04/14 00:12:48;;;;;;;8.70;2.83;;;4.40;99.90;;;;;;5027888;28;20437;-91
2023/04/14 00:15:14;;;;;;;10.23;3.00;;;4.40;99.90;;;;;;5043141;28;20036;-91
2023/04/14 00:17:42;;;;;;;9.77;3.03;;;4.40;99.90;;;;;;5075987;28;20059;-91
2023/04/14 00:20:08;;;;;;;8.68;2.90;;;4.30;99.90;;;;;;5060480;28;21280;-92
2023/04/14 00:22:34;;;;;;;5.32;3.00;;;4.30;99.90;;;;;;5030428;28;20119;-92
2023/04/14 00:25:00;;;;;;;12.65;3.17;;;4.30;99.90;;;;;;5045200;28;20025;-91
2023/04/14 00:27:26;;;;;;;10.80;3.50;;;4.20;99.90;;;;;;5061283;28;20365;-90
2023/04/14 00:29:52;;;;;;;10.18;3.13;;;4.20;99.90;;;;;;5042135;28;20033;-91
2023/04/14 00:32:18;;;;;;;12.45;3.05;;;4.20;99.90;;;;;;5044955;28;20095;-91
2023/04/14 00:34:44;;;;;;;10.07;3.20;;;4.20;99.90;;;;;;5043955;28;20061;-91
2023/04/14 00:37:09;;;;;;;7.18;3.05;;;4.20;99.90;;;;;;5028490;28;20412;-91
2023/04/14 00:39:35;;;;;;;16.45;3.50;;;4.20;99.90;;;;;;5027481;28;20037;-92
2023/04/14 00:42:02;;;;;;;8.73;3.15;;;4.20;99.90;;;;;;5062171;28;20507;-92
2023/04/14 00:44:28;;;;;;;12.43;3.47;;;4.20;99.90;;;;;;5045265;28;20056;-91
2023/04/14 00:46:54;;;;;;;4.93;2.63;;;4.30;99.90;;;;;;5026649;28;20037;-91
2023/04/14 00:49:19;;;;;;;8.18;2.97;;;4.30;99.90;;;;;;5060268;28;20044;-91
2023/04/14 00:51:46;;;;;;;9.75;2.80;;;4.30;99.90;;;;;;5044699;28;20538;-91
2023/04/14 00:54:14;;;;;;;6.18;2.72;;;4.50;99.90;;;;;;5043974;28;20400;-92
2023/04/14 00:56:42;;;;;;;7.30;2.90;;;4.50;99.90;;;;;;5028250;28;20871;-92
2023/04/14 00:59:08;;;;;;;7.90;2.58;;;4.70;99.90;;;;;;5060037;28;20095;-92
2023/04/14 01:01:39;;;;;;;8.25;2.50;;;4.70;99.90;;;;;;5029824;28;20111;-90
2023/04/14 01:04:05;;;;;;;12.98;2.63;;;4.60;99.90;;;;;;5026025;28;20043;-91
2023/04/14 01:06:32;;;;;;;5.85;2.38;;;4.50;99.90;;;;;;5060383;28;20215;-92
2023/04/14 01:08:58;;;;;;;7.32;2.53;;;4.50;99.90;;;;;;5060058;28;20515;-92
2023/04/14 01:11:24;;;;;;;8.85;2.58;;;4.50;99.90;;;;;;5062922;28;20041;-92
2023/04/14 01:14:15;;;;;;;5.03;2.20;;;4.50;99.90;;;;;;5027964;28;20376;-91
2023/04/14 01:16:44;;;;;;;6.65;2.67;;;4.50;99.90;;;;;;5011787;28;20047;-91
2023/04/14 01:19:40;;;;;;;10.43;2.60;;;4.40;99.90;;;;;;5043431;28;20048;-91
2023/04/14 01:22:09;;;;;;;5.63;2.38;;;4.50;99.90;;;;;;5027217;28;20056;-91
2023/04/14 01:24:37;;;;;;;6.03;2.63;;;4.50;99.90;;;;;;5043301;28;20504;-90
2023/04/14 01:27:25;;;;;;;6.30;2.47;;;4.50;99.90;;;;;;5027738;28;20542;-91
2023/04/14 01:30:01;;;;;;;8.32;2.50;;;4.50;99.90;;;;;;5040632;28;20061;-90
2023/04/14 01:32:33;;;;;;;7.05;2.58;;;4.40;99.90;;;;;;5059871;28;20041;-91
2023/04/14 01:35:16;;;;;;;8.77;2.60;;;4.30;99.90;;;;;;5044180;28;20128;-91
2023/04/14 01:37:51;;;;;;;9.52;2.92;;;4.20;99.90;;;;;;5025745;28;20546;-90
2023/04/14 01:40:19;;;;;;;6.60;2.25;;;4.10;99.90;;;;;;5042796;28;20045;-92
2023/04/14 01:42:53;;;;;;;8.65;2.50;;;4.00;99.90;;;;;;5025326;28;20041;-92
2023/04/14 01:45:23;;;;;;;13.82;2.80;;;3.80;99.90;;;;;;5039853;28;20045;-91
2023/04/14 01:47:51;;;;;;;6.38;2.65;;;3.70;99.90;;;;;;5059851;28;20060;-91
2023/04/14 01:50:18;;;;;;;4.78;2.50;;;3.70;99.90;;;;;;5043306;28;20456;-90
2023/04/14 01:52:46;;;;;;;9.27;2.75;;;3.50;99.90;;;;;;5045020;28;20049;-92
2023/04/14 01:55:16;;;;;;;9.32;2.97;;;3.50;99.90;;;;;;5026497;28;20037;-91
2023/04/14 01:57:49;;;;;;;8.00;3.10;;;3.50;99.90;;;;;;5027122;28;20114;-91
2023/04/14 02:00:23;;;;;;;6.88;2.60;;;3.60;99.90;;;;;;5041532;28;20047;-91
2023/04/14 02:02:53;;;;;;;6.88;2.80;;;3.60;99.90;;;;;;5026742;28;20468;-91
2023/04/14 02:05:20;;;;;;;8.05;3.30;;;3.60;99.90;;;;;;5042738;28;20037;-92
2023/04/14 02:07:48;;;;;;;6.88;3.15;;;3.60;99.90;;;;;;5025609;28;20072;-91
2023/04/14 02:10:20;;;;;;;8.88;2.97;;;3.60;99.90;;;;;;5025306;28;20044;-92
2023/04/14 02:12:47;;;;;;;7.78;3.45;;;3.70;99.90;;;;;;5058914;28;20123;-91
2023/04/14 02:15:16;;;;;;;8.48;3.33;;;3.70;99.90;;;;;;5078544;28;20047;-91
2023/04/14 02:17:45;;;;;;;9.07;2.65;;;3.80;99.90;;;;;;5058747;28;20102;-92
2023/04/14 02:20:14;;;;;;;9.20;3.00;;;3.80;99.90;;;;;;5058499;28;20499;-90
2023/04/14 02:22:40;;;;;;;6.47;2.90;;;3.80;99.90;;;;;;5043352;28;20111;-91
2023/04/14 02:25:07;;;;;;;7.38;2.75;;;3.90;99.90;;;;;;5030131;28;20423;-91
2023/04/14 02:27:55;;;;;;;8.90;2.90;;;3.90;99.90;;;;;;5062890;28;20530;-90
2023/04/14 02:30:26;;;;;;;5.70;3.05;;;3.80;99.90;;;;;;5027043;28;20044;-91
2023/04/14 02:32:59;;;;;;;5.65;3.35;;;3.90;99.90;;;;;;5060725;28;20044;-91
2023/04/14 02:35:27;;;;;;;7.30;2.92;;;3.90;99.90;;;;;;5030336;28;20507;-90
2023/04/14 02:37:59;;;;;;;4.50;2.58;;;3.90;99.90;;;;;;5045313;28;20110;-91
2023/04/14 02:40:35;;;;;;;5.18;2.78;;;3.80;99.90;;;;;;5063468;28;20404;-91
2023/04/14 02:43:10;;;;;;;8.88;3.97;;;3.90;99.90;;;;;;5060057;28;20037;-91
2023/04/14 02:45:37;;;;;;;;;;;3.90;99.90;;;;;;5045584;28;20047;-91
2023/04/14 02:48:08;;;;;;;6.68;3.08;;;3.90;99.90;;;;;;5062725;28;19920;-90
2023/04/14 02:50:35;;;;;;;5.63;3.28;;;4.00;99.90;;;;;;5062777;28;20071;-91
2023/04/14 02:53:03;;;;;;;8.70;3.47;;;4.00;99.90;;;;;;5031530;28;20041;-91
2023/04/14 02:55:30;;;;;;;5.15;3.25;;;4.10;99.90;;;;;;5029824;28;20079;-91
2023/04/14 02:57:59;;;;;;;7.45;3.30;;;4.10;99.90;;;;;;5028831;28;20045;-91
2023/04/14 03:00:26;;;;;;;9.65;3.30;;;4.10;99.90;;;;;;5029152;28;20048;-91
2023/04/14 03:02:53;;;;;;;10.45;3.35;;;4.10;99.90;;;;;;5045386;28;20037;-91
2023/04/14 03:05:20;;;;;;;7.53;3.13;;;4.10;99.90;;;;;;5028669;28;20078;-90
2023/04/14 03:07:46;;;;;;;8.55;3.30;;;4.20;99.90;;;;;;5061558;28;20039;-91
2023/04/14 03:10:13;;;;;;;7.68;2.95;;;4.20;99.90;;;;;;5062132;28;20052;-91
2023/04/14 03:12:40;;;;;;;8.73;3.03;;;4.20;99.90;;;;;;5045851;28;20076;-91
2023/04/14 03:15:07;;;;;;;6.70;2.95;;;4.10;99.90;;;;;;5041828;28;20049;-91
2023/04/14 03:17:34;;;;;;;7.38;3.45;;;4.20;99.90;;;;;;5028663;28;20055;-91
2023/04/14 03:20:01;;;;;;;6.50;3.15;;;4.10;99.90;;;;;;5060568;28;20052;-90
2023/04/14 03:22:28;;;;;;;8.27;3.40;;;4.10;99.90;;;;;;5028325;28;20037;-91
2023/04/14 03:24:57;;;;;;;6.85;3.17;;;4.10;99.90;;;;;;5028036;28;20048;-91
2023/04/14 03:27:29;;;;;;;7.15;2.95;;;4.00;99.90;;;;;;5045204;28;20033;-91
2023/04/14 03:30:00;;;;;;;9.02;3.05;;;4.00;99.90;;;;;;5044150;28;20037;-90
2023/04/14 03:32:32;;;;;;;9.02;3.15;;;4.00;99.90;;;;;;5045593;28;20392;-91
2023/04/14 03:35:01;;;;;;;6.70;3.03;;;4.00;99.90;;;;;;5044340;28;20033;-91
2023/04/14 03:37:28;;;;;;;6.28;3.00;;;4.00;99.90;;;;;;5032108;28;20052;-91
2023/04/14 03:40:00;;;;;;;5.47;2.95;;;4.00;99.90;;;;;;5027662;28;20038;-91
2023/04/14 03:42:28;;;;;;;5.93;3.10;;;4.00;99.90;;;;;;5045499;28;20045;-91
2023/04/14 03:44:57;;;;;;;5.95;3.30;;;3.90;99.90;;;;;;5045939;28;20065;-90
2023/04/14 03:47:25;;;;;;;7.63;2.70;;;3.90;99.90;;;;;;5045492;28;20048;-91
2023/04/14 03:49:55;;;;;;;7.07;2.80;;;3.90;99.90;;;;;;5060677;28;20562;-92
2023/04/14 03:52:22;;;;;;;10.52;3.33;;;3.90;99.90;;;;;;5061593;28;20052;-91
2023/04/14 03:54:52;;;;;;;6.90;3.05;;;3.90;99.90;;;;;;5061164;28;20037;-90
2023/04/14 03:57:21;;;;;;;8.82;3.30;;;3.80;99.90;;;;;;5028778;28;20345;-90
2023/04/14 03:59:50;;;;;;;8.60;3.30;;;3.80;99.90;;;;;;5044043;28;20080;-90
2023/04/14 04:02:17;;;;;;;8.50;3.33;;;3.90;99.90;;;;;;5044464;28;20163;-91
2023/04/14 04:04:44;;;;;;;5.80;3.03;;;3.80;99.90;;;;;;5044627;28;20123;-90
2023/04/14 04:07:14;;;;;;;5.63;3.05;;;3.80;99.90;;;;;;5059859;28;20045;-91
2023/04/14 04:09:45;;;;;;;9.35;3.28;;;3.80;99.90;;;;;;5040136;28;20444;-90
2023/04/14 04:12:12;;;;;;;7.72;3.00;;;3.80;99.90;;;;;;5028361;28;20827;-90
2023/04/14 04:14:39;;;;;;;8.80;3.05;;;3.90;99.90;;;;;;5043293;28;20044;-91
2023/04/14 04:17:07;;;;;;;7.53;2.70;;;3.90;99.90;;;;;;5043303;28;20059;-92
2023/04/14 04:19:37;;;;;;;6.70;3.22;;;4.00;99.90;;;;;;5028806;28;20288;-90
2023/04/14 04:22:04;;;;;;;8.57;3.15;;;4.00;99.90;;;;;;5044234;28;20056;-91
2023/04/14 04:24:34;;;;;;;5.10;3.10;;;4.10;99.90;;;;;;5027510;28;20045;-92
2023/04/14 04:27:00;;;;;;;5.13;2.90;;;4.00;99.90;;;;;;5029439;28;20124;-91
2023/04/14 04:29:26;;;;;;;6.82;3.25;;;4.10;99.90;;;;;;5043787;28;20159;-91
2023/04/14 04:31:52;;;;;;;7.80;2.83;;;4.10;99.90;;;;;;5042748;28;20044;-91
2023/04/14 04:34:19;;;;;;;7.65;2.85;;;4.10;99.90;;;;;;5027816;28;20052;-91
2023/04/14 04:36:46;;;;;;;7.47;3.28;;;4.00;99.90;;;;;;5026846;28;20056;-91
2023/04/14 04:39:11;;;;;;;6.75;2.75;;;4.00;99.90;;;;;;5027914;28;20063;-91
2023/04/14 04:41:37;;;;;;;7.43;3.30;;;4.00;99.90;;;;;;5044267;28;20045;-91
2023/04/14 04:44:02;;;;;;;5.75;2.70;;;4.00;99.90;;;;;;5058666;28;20041;-90
2023/04/14 04:46:47;;;;;;;6.05;2.75;;;4.00;99.90;;;;;;5025589;28;20037;-91
2023/04/14 04:49:13;;;;;;;10.25;3.13;;;4.00;99.90;;;;;;5060483;28;20033;-91
2023/04/14 04:51:39;;;;;;;8.25;2.78;;;4.00;99.90;;;;;;5042627;28;20045;-92
2023/04/14 04:54:05;;;;;;;6.63;2.70;;;4.00;99.90;;;;;;5058995;28;20057;-90
2023/04/14 04:56:31;;;;;;;7.82;3.33;;;4.00;99.90;;;;;;5044342;28;20784;-91
2023/04/14 04:58:58;;;;;;;7.60;2.65;;;4.00;99.90;;;;;;5025458;28;20451;-91
2023/04/14 05:01:26;;;;;;;5.18;2.67;;;4.10;99.90;;;;;;5043629;28;20052;-91
2023/04/14 05:03:52;;;;;;;7.97;2.83;;;4.10;99.90;;;;;;5026533;28;20411;-91
2023/04/14 05:06:18;;;;;;;6.32;2.97;;;4.20;99.90;;;;;;5028992;28;20192;-90
2023/04/14 05:08:44;;;;;;;6.03;3.25;;;4.20;99.90;;;;;;5027818;28;20037;-91
2023/04/14 05:11:10;;;;;;;8.57;3.10;;;4.30;99.90;;;;;;5044735;28;20072;-91
2023/04/14 05:13:35;;;;;;;7.75;3.35;;;4.30;99.90;;;;;;5058219;28;20040;-91
2023/04/14 05:16:05;;;;;;;8.00;2.90;;;4.40;99.90;;;;;;5028177;28;20044;-91
2023/04/14 05:18:32;;;;;;;11.52;3.40;;;4.50;99.90;;;;;;5029238;28;20041;-91
2023/04/14 05:21:12;;;;;;;5.18;3.00;;;4.60;99.90;;;;;;5026049;28;20056;-92
2023/04/14 05:23:39;;;;;;;5.10;2.60;;;4.70;99.90;;;;;;5041681;28;20044;-90
2023/04/14 05:26:05;;;;;;;9.63;3.38;;;4.70;99.90;;;;;;5059343;28;20401;-91
2023/04/14 05:28:31;;;;;;;5.63;3.17;;;4.80;99.90;;;;;;5028301;28;20041;-91
2023/04/14 05:30:57;;;;;;;8.05;3.22;;;4.80;99.90;;;;;;5043004;28;20041;-91
2023/04/14 05:33:23;;;;;;;5.93;3.05;;;4.90;99.90;;;;;;5077005;28;20045;-90
2023/04/14 05:35:49;;;;;;;10.02;3.20;;;5.00;99.90;;;;;;5029212;28;20093;-90
2023/04/14 05:38:16;;;;;;;6.60;3.08;;;5.00;99.90;;;;;;5042908;28;20506;-91
2023/04/14 05:40:42;;;;;;;8.55;3.05;;;5.10;99.90;;;;;;5059729;28;20044;-91
2023/04/14 05:43:08;;;;;;;6.75;2.95;;;5.20;99.90;;;;;;5075711;28;20066;-91
2023/04/14 05:45:36;;;;;;;8.45;3.00;;;5.20;99.90;;;;;;5056574;28;20102;-91
2023/04/14 05:48:03;;;;;;;8.02;3.35;;;5.20;99.90;;;;;;5028027;28;20045;-90
2023/04/14 05:50:28;;;;;;;8.40;2.83;;;5.30;99.90;;;;;;5030233;28;20037;-90
2023/04/14 05:52:54;;;;;;;7.38;2.95;;;5.40;99.90;;;;;;5045497;28;20115;-91
2023/04/14 05:55:20;;;;;;;8.32;3.15;;;5.40;99.90;;;;;;5047445;28;20048;-91
2023/04/14 05:57:46;;;;;;;6.72;3.05;;;5.50;99.90;;;;;;5062846;28;20111;-90
2023/04/14 06:00:12;;;;;;;7.10;3.10;;;5.60;99.90;;;;;;5062550;28;20076;-90
2023/04/14 06:02:46;;;;;;;7.25;3.00;;;5.60;99.90;;;;;;5047526;28;20131;-91
2023/04/14 06:05:12;;;;;;;4.95;2.95;;;5.80;99.90;;;;;;5046735;28;20443;-91
2023/04/14 06:07:41;;;;;;;6.20;3.08;;;5.90;99.90;;;;;;5030257;28;20043;-91
2023/04/14 06:10:07;;;;;;;5.72;2.88;;;6.00;99.90;;;;;;5063742;28;20037;-91
2023/04/14 06:12:33;;;;;;;8.75;3.60;;;6.20;99.90;;;;;;5029651;28;20071;-91
2023/04/14 06:14:59;;;;;;;7.13;2.90;;;6.20;99.90;;;;;;5029378;28;20036;-90
2023/04/14 06:17:24;;;;;;;8.80;3.30;;;6.30;99.90;;;;;;5063476;28;20040;-90
2023/04/14 06:19:52;;;;;;;8.43;3.30;;;6.30;99.90;;;;;;5047397;28;20044;-91
2023/04/14 06:22:20;;;;;;;10.32;3.13;;;6.50;99.90;;;;;;5030365;28;20132;-91
2023/04/14 06:24:46;;;;;;;9.63;3.08;;;6.60;99.90;;;;;;5030315;28;20105;-91
2023/04/14 06:27:11;;;;;;;5.43;2.60;;;6.60;99.90;;;;;;5030974;28;20569;-91
2023/04/14 06:29:37;;;;;;;11.38;3.08;;;6.70;99.90;;;;;;5031454;28;20114;-91
2023/04/14 06:32:03;;;;;;;6.20;2.83;;;6.80;99.90;;;;;;5046843;28;20074;-92
2023/04/14 06:34:28;;;;;;;7.68;2.97;;;6.80;99.90;;;;;;5046642;28;20044;-91
2023/04/14 06:36:55;;;;;;;8.77;2.90;;;6.90;99.90;;;;;;5029580;28;20060;-91
2023/04/14 06:39:21;;;;;;;7.28;3.00;;;7.00;99.90;;;;;;5028287;28;20060;-90
2023/04/14 06:41:47;;;;;;;12.70;2.65;;;7.10;99.90;;;;;;5029663;28;20041;-91
2023/04/14 06:44:13;;;;;;;8.40;2.55;;;7.30;99.90;;;;;;5044634;28;20041;-91
2023/04/14 06:46:39;;;;;;;8.25;2.65;;;7.40;99.90;;;;;;5029565;28;20041;-91
2023/04/14 06:49:06;;;;;;;10.60;2.65;;;7.50;99.90;;;;;;5062384;28;20063;-91
2023/04/14 06:51:32;;;;;;;9.50;2.58;;;7.60;99.90;;;;;;5045261;28;20128;-91
2023/04/14 06:53:58;;;;;;;8.88;2.70;;;7.70;99.90;;;;;;5028731;28;20049;-90
2023/04/14 06:56:24;;;;;;;6.50;2.55;;;7.80;99.90;;;;;;5060952;28;20044;-91
2023/04/14 06:58:50;;;;;;;11.80;2.72;;;7.90;99.90;;;;;;5028251;28;20183;-91
2023/04/14 07:01:15;;;;;;;8.38;2.80;;;8.10;99.90;;;;;;5043392;28;20033;-90
2023/04/14 07:03:42;;;;;;;8.73;2.67;;;8.20;99.90;;;;;;5029576;28;20036;-91
2023/04/14 07:06:12;;;;;;;7.22;2.28;;;8.30;99.90;;;;;;5062893;28;20025;-91
2023/04/14 07:08:39;;;;;;;13.30;2.50;;;8.40;99.90;;;;;;5028768;28;20043;-91
2023/04/14 07:11:07;;;;;;;7.72;2.53;;;8.50;99.90;;;;;;5029496;28;20497;-92
2023/04/14 07:13:33;;;;;;;9.27;2.17;;;8.60;99.90;;;;;;5045467;28;20049;-90
2023/04/14 07:16:01;;;;;;;10.20;2.55;;;8.70;99.90;;;;;;5044447;28;20037;-92
2023/04/14 07:18:26;;;;;;;6.80;2.00;;;8.70;99.90;;;;;;5045399;28;20119;-91
2023/04/14 07:20:53;;;;;;;9.40;2.33;;;8.70;99.90;;;;;;5027242;28;20124;-91
2023/04/14 07:23:19;;;;;;;5.93;2.58;;;8.90;99.90;;;;;;5029030;28;20032;-90
2023/04/14 07:25:50;;;;;;;8.05;2.42;;;8.90;99.90;;;;;;5028400;28;20099;-92
2023/04/14 07:28:16;;;;;;;8.95;2.60;;;9.00;99.90;;;;;;5043966;28;20124;-91
2023/04/14 07:30:42;;;;;;;7.07;2.50;;;9.10;99.90;;;;;;5070503;28;20181;-92
2023/04/14 07:33:08;;;;;;;7.20;2.70;;;9.20;99.90;;;;;;5061816;28;20041;-91
2023/04/14 07:35:34;;;;;;;6.47;2.47;;;9.20;99.90;;;;;;5062296;28;20040;-91
2023/04/14 07:37:59;;;;;;;5.13;2.25;;;9.40;99.90;;;;;;5027630;28;20461;-91
2023/04/14 07:40:25;;;;;;;11.10;3.30;;;9.40;99.90;;;;;;5045651;28;20443;-91
2023/04/14 07:42:51;;;;;;;8.02;2.28;;;9.50;99.90;;;;;;5030653;28;20037;-91
2023/04/14 07:45:17;;;;;;;12.77;2.30;;;9.70;99.90;;;;;;5043539;28;20033;-90
2023/04/14 07:47:43;;;;;;;10.38;2.30;;;9.70;99.90;;;;;;5060722;28;20041;-91
2023/04/14 07:50:09;;;;;;;8.55;1.88;;;9.70;99.90;;;;;;5045165;28;20415;-91
2023/04/14 07:52:36;;;;;;;8.57;2.00;;;9.90;99.90;;;;;;5044189;28;20051;-91
2023/04/14 07:55:02;;;;;;;7.65;2.08;;;9.90;99.90;;;;;;5045116;28;20033;-91
2023/04/14 07:57:28;;;;;;;8.65;2.88;;;10.00;99.90;;;;;;5061007;28;20422;-91
2023/04/14 07:59:53;;;;;;;8.82;2.60;;;10.10;85.80;;;;;;5027420;28;20029;-91
2023/04/14 08:02:20;;;;;;;10.38;2.35;;;10.30;99.90;;;;;;5027779;28;20590;-90
2023/04/14 08:04:46;;;;;;;8.25;2.40;;;10.30;99.90;;;;;;5044509;28;20041;-92
2023/04/14 08:07:12;;;;;;;10.57;3.35;;;10.30;99.90;;;;;;5061271;28;20111;-91
2023/04/14 08:09:38;;;;;;;7.78;1.90;;;10.50;99.90;;;;;;5044201;28;20131;-91
2023/04/14 08:12:04;;;;;;;6.03;2.22;;;10.60;42.50;;;;;;5044512;28;20044;-91
2023/04/14 08:14:29;;;;;;;6.22;2.13;;;10.50;89.00;;;;;;5043123;28;20040;-91
2023/04/14 08:16:55;;;;;;;8.02;2.20;;;10.70;99.90;;;;;;5064080;28;20044;-91
2023/04/14 08:19:21;;;;;;;9.10;1.98;;;10.80;99.90;;;;;;5030687;28;20037;-90
2023/04/14 08:21:46;;;;;;;11.82;2.88;;;10.80;1.00;;;;;;5044049;28;20041;-91
2023/04/14 08:24:12;;;;;;;7.05;1.90;;;10.90;1.00;;;;;;5060867;28;20041;-90
2023/04/14 08:26:39;;;;;;;6.57;2.17;;;11.10;99.90;;;;;;5027779;28;20040;-91
2023/04/14 08:29:04;;;;;;;8.85;1.95;;;11.20;99.90;;;;;;5027242;28;20037;-91
2023/04/14 08:31:31;;;;;;;7.00;2.38;;;11.20;99.90;;;;;;5027851;28;20090;-90
2023/04/14 08:34:00;;;;;;;9.02;2.28;;;11.30;99.90;;;;;;5042748;28;20051;-91
2023/04/14 08:36:26;;;;;;;6.95;1.90;;;11.40;99.90;;;;;;5027728;28;20500;-91
2023/04/14 08:38:52;;;;;;;12.30;2.40;;;11.50;99.90;;;;;;5044076;28;20048;-92
2023/04/14 08:41:19;;;;;;;6.82;1.95;;;11.60;99.90;;;;;;5060290;28;20099;-90
2023/04/14 08:43:45;;;;;;;7.22;2.00;;;11.70;99.90;;;;;;5043448;28;20032;-91
2023/04/14 08:46:13;;;;;;;18.88;2.88;;;11.80;99.90;;;;;;5058123;28;20041;-91
2023/04/14 08:48:39;;;;;;;7.35;2.30;;;11.80;99.90;;;;;;5044433;28;20040;-91
2023/04/14 08:51:10;;;;;;;7.88;2.00;;;12.00;99.90;;;;;;5044160;28;20060;-90
2023/04/14 08:53:44;;;;;;;8.13;2.05;;;12.00;99.90;;;;;;5026946;28;20051;-90
2023/04/14 08:56:12;;;;;;;9.50;2.33;;;12.00;99.90;;;;;;5027458;28;20520;-91
2023/04/14 08:58:39;;;;;;;10.57;2.53;;;12.10;99.90;;;;;;5059529;28;20048;-91
2023/04/14 09:01:05;;;;;;;9.85;2.95;;;12.00;99.90;;;;;;5043970;28;20095;-91
2023/04/14 09:03:31;;;;;;;9.20;2.25;;;12.20;99.90;;;;;;5060666;28;20037;-90
2023/04/14 09:05:57;;;;;;;9.30;2.60;;;12.40;83.60;;;;;;5060363;28;20084;-92
2023/04/14 09:08:23;;;;;;;7.32;2.17;;;12.50;1.00;;;;;;5044042;28;20061;-91
2023/04/14 09:10:50;;;;;;;10.27;2.15;;;12.40;99.90;;;;;;5059491;28;20238;-91
2023/04/14 09:13:16;;;;;;;7.13;2.53;;;12.50;58.80;;;;;;5060235;28;20036;-91
2023/04/14 09:15:42;;;;;;;6.40;2.30;;;12.50;1.00;;;;;;5059337;28;20041;-91
2023/04/14 09:18:10;;;;;;;7.85;2.10;;;12.50;99.90;;;;;;5043517;28;20037;-91
2023/04/14 09:20:36;;;;;;;7.03;1.70;;;12.70;1.00;;;;;;5027499;28;20194;-91
2023/04/14 09:23:03;;;;;;;7.85;2.28;;;12.80;99.90;;;;;;5042905;28;20111;-91
2023/04/14 09:25:29;;;;;;;6.47;2.03;;;13.00;99.90;;;;;;5060117;28;20293;-90
2023/04/14 09:27:55;;;;;;;5.30;2.00;;;13.10;99.90;;;;;;5059744;28;20205;-91
2023/04/14 09:30:22;;;;;;;6.68;2.55;;;13.30;76.30;;;;;;5061959;28;20233;-91
2023/04/14 09:32:53;;;;;;;7.25;1.83;;;13.30;99.90;;;;;;5043400;28;20044;-92
2023/04/14 09:35:19;;;;;;;5.88;1.70;;;13.50;1.00;;;;;;5059807;28;20044;-91
2023/04/14 09:37:47;;;;;;;8.18;2.65;;;13.70;1.00;;;;;;5058633;28;20049;-90
2023/04/14 09:40:29;;;;;;;8.18;2.35;;;13.70;19.60;;;;;;5043044;28;20056;-91
2023/04/14 09:42:55;;;;;;;11.43;2.40;;;13.80;1.00;;;;;;5042688;28;20037;-91
2023/04/14 09:45:21;;;;;;;10.93;2.65;;;13.90;99.90;;;;;;5025923;28;20113;-91
2023/04/14 09:47:51;;;;;;;8.25;2.38;;;13.90;99.90;;;;;;5042836;28;20045;-92
2023/04/14 09:50:16;;;;;;;7.70;1.92;;;14.10;99.90;;;;;;5059671;28;20041;-91
2023/04/14 09:52:43;;;;;;;8.70;2.25;;;14.20;99.90;;;;;;5026140;28;20097;-91
2023/04/14 09:55:14;;;;;;;8.45;2.30;;;14.20;99.90;;;;;;5026621;28;20499;-90
2023/04/14 09:57:46;;;;;;;10.55;2.47;;;14.40;99.90;;;;;;5057187;28;20037;-91
2023/04/14 10:00:14;;;;;;;8.75;2.22;;;14.40;99.90;;;;;;5025210;28;20476;-91
2023/04/14 10:02:54;;;;;;;6.97;2.50;;;14.70;99.90;;;;;;5059616;28;20345;-90
2023/04/14 10:05:27;;;;;;;10.82;2.40;;;14.90;99.90;;;;;;5043078;28;20029;-92
2023/04/14 10:07:53;;;;;;;8.00;2.65;;;14.60;99.90;;;;;;5025921;28;20047;-91
2023/04/14 10:10:18;;;;;;;10.70;2.90;;;15.10;99.90;;;;;;5058172;28;20029;-91
2023/04/14 10:12:45;;;;;;;8.63;2.25;;;15.30;43.20;;;;;;5041711;28;20030;-91
2023/04/14 10:15:11;;;;;;;7.10;2.42;;;15.60;99.90;;;;;;5026157;28;20040;-91
2023/04/14 10:17:41;;;;;;;8.57;2.67;;;15.70;1.00;;;;;;5028288;28;20481;-91
2023/04/14 10:20:07;;;;;;;7.45;2.45;;;15.70;1.00;;;;;;5026390;28;20029;-91
2023/04/14 10:22:34;;;;;;;5.47;2.17;;;15.90;99.90;;;;;;5059096;28;20566;-90
2023/04/14 10:25:00;;;;;;;8.23;2.45;;;16.00;99.90;;;;;;5042074;28;20155;-91
2023/04/14 10:27:29;;;;;;;7.78;2.30;;;16.20;99.90;;;;;;5057305;28;20119;-90
2023/04/14 10:29:56;;;;;;;9.10;2.53;;;16.40;99.90;;;;;;5058334;28;20090;-91
2023/04/14 10:32:23;;;;;;;7.47;2.60;;;16.30;99.90;;;;;;5025395;28;20037;-91
2023/04/14 10:35:09;;;;;;;10.35;2.35;;;16.10;99.90;;;;;;5045198;28;20040;-91
2023/04/14 10:37:35;;;;;;;4.70;1.95;;;16.20;99.90;;;;;;5029038;28;20504;-91
2023/04/14 10:40:06;;;;;;;8.52;2.45;;;16.30;99.90;;;;;;5046297;28;20124;-90
2023/04/14 10:42:55;;;;;;;7.75;1.83;;;16.10;1.00;;;;;;5046418;28;20044;-92
2023/04/14 10:45:20;;;;;;;7.13;2.10;;;14.60;99.90;;;;;;5060446;28;20096;-91
2023/04/14 10:47:46;;;;;;;9.18;2.45;;;15.10;1.00;;;;;;5027769;28;20132;-90
2023/04/14 10:50:16;;;;;;;8.25;2.63;;;15.60;1.00;;;;;;5043931;28;20067;-92
2023/04/14 10:52:50;;;;;;;7.32;2.05;;;15.80;1.00;;;;;;5029341;28;20162;-91
2023/04/14 10:55:24;;;;;;;6.95;2.30;;;16.20;99.90;;;;;;5045290;28;20079;-91
2023/04/14 10:57:50;;;;;;;7.55;2.45;;;16.40;1.00;;;;;;5046030;28;20098;-91
2023/04/14 11:00:27;;;;;;;5.90;2.30;;;16.40;99.90;;;;;;5061552;28;20056;-91
2023/04/14 11:03:09;;;;;;;6.20;1.75;;;16.60;99.90;;;;;;5078057;28;20048;-91
2023/04/14 11:05:44;;;;;;;6.25;1.95;;;16.50;99.90;;;;;;5062311;28;20041;-91
2023/04/14 11:08:15;;;;;;;5.65;1.85;;;16.80;99.90;;;;;;5044683;28;20361;-91
2023/04/14 11:10:47;;;;;;;8.43;1.98;;;16.10;99.90;;;;;;5062377;28;20116;-91
2023/04/14 11:13:13;;;;;;;5.82;2.28;;;16.30;99.90;;;;;;5059741;28;20138;-91
2023/04/14 11:15:46;;;;;;;9.10;2.33;;;15.60;99.90;;;;;;5044876;28;20508;-91
2023/04/14 11:18:36;;;;;;;6.80;2.30;;;15.40;99.90;;;;;;5044286;28;20102;-91
2023/04/14 11:21:05;;;;;;;9.25;2.50;;;15.30;99.90;;;;;;5079106;28;20523;-91
2023/04/14 11:23:33;;;;;;;8.68;2.25;;;15.90;99.90;;;;;;5030366;28;20036;-90
2023/04/14 11:25:59;;;;;;;10.10;2.45;;;16.30;99.90;;;;;;5045224;28;20041;-90
2023/04/14 11:28:28;;;;;;;6.82;1.90;;;16.60;99.90;;;;;;5027559;28;20037;-90
2023/04/14 11:30:56;;;;;;;7.25;1.88;;;16.80;99.90;;;;;;5061522;28;20037;-90
2023/04/14 11:33:21;;;;;;;7.15;2.03;;;17.50;99.90;;;;;;5045184;28;20049;-91
2023/04/14 11:35:47;;;;;;;4.72;2.00;;;17.70;99.90;;;;;;5044988;28;20047;-91
2023/04/14 11:38:14;;;;;;;7.50;2.33;;;18.10;99.90;;;;;;5043406;28;20459;-91
2023/04/14 11:40:40;;;;;;;5.22;2.13;;;17.10;99.90;;;;;;5061616;28;20517;-91
2023/04/14 11:43:06;;;;;;;6.22;1.90;;;16.50;71.60;;;;;;5044207;28;20403;-90
2023/04/14 11:45:32;;;;;;;10.88;2.00;;;16.40;18.10;;;;;;5044029;28;20116;-91
2023/04/14 11:47:59;;;;;;;6.22;2.10;;;16.60;75.70;;;;;;5045023;28;20121;-91
2023/04/14 11:50:26;;;;;;;5.07;2.00;;;16.70;99.90;;;;;;5076643;28;20040;-90
2023/04/14 11:52:58;;;;;;;7.10;2.05;;;16.30;51.10;;;;;;5027190;28;20051;-90
2023/04/14 11:55:28;;;;;;;8.85;2.60;;;16.20;55.10;;;;;;5044737;28;20071;-90
2023/04/14 11:57:55;;;;;;;3.25;1.60;;;16.00;29.50;;;;;;5028283;28;20151;-91
2023/04/14 12:00:21;;;;;;;6.25;2.30;;;15.80;9.00;;;;;;5025696;28;20103;-90
2023/04/14 12:02:46;;;;;;;5.93;2.40;;;16.10;43.60;;;;;;5028567;28;20048;-90
2023/04/14 12:05:17;;;;;;;5.63;2.00;;;16.00;5.00;;;;;;5044222;28;20051;-89
2023/04/14 12:07:44;;;;;;;5.75;1.90;;;16.10;99.90;;;;;;5044102;28;20086;-90
2023/04/14 12:10:11;;;;;;;5.45;2.13;;;16.10;99.90;;;;;;5044132;28;20059;-90
2023/04/14 12:12:37;;;;;;;7.18;2.50;;;16.20;36.20;;;;;;5043950;28;20644;-90
2023/04/14 12:15:04;;;;;;;6.45;2.20;;;15.80;29.90;;;;;;5026008;28;20063;-90
2023/04/14 12:17:30;;;;;;;8.32;2.63;;;16.00;1.00;;;;;;5042528;28;20033;-89
2023/04/14 12:19:55;;;;;;;8.32;2.47;;;15.80;1.00;;;;;;5043853;28;20546;-90
2023/04/14 12:22:28;;;;;;;5.40;2.28;;;15.70;1.00;;;;;;5026009;28;20112;-90
2023/04/14 12:24:57;;;;;;;6.03;2.20;;;16.30;30.30;;;;;;5045339;28;20037;-90
2023/04/14 12:27:24;;;;;;;8.23;2.25;;;15.90;1.00;;;;;;5044060;28;20032;-90
2023/04/14 12:29:51;;;;;;;6.18;2.65;;;16.00;1.00;;;;;;5041996;28;20086;-89
2023/04/14 12:32:17;;;;;;;4.10;1.80;;;16.10;3.40;;;;;;5059460;28;20237;-90
2023/04/14 12:34:56;;;;;;;8.00;2.63;;;16.10;1.00;;;;;;5060134;28;20112;-90
2023/04/14 12:37:26;;;;;;;6.55;2.20;;;16.50;1.00;;;;;;5059220;28;20117;-89
2023/04/14 12:39:58;;;;;;;8.95;2.20;;;17.10;1.00;;;;;;5059914;28;20044;-90
2023/04/14 12:42:25;;;;;;;6.85;2.40;;;16.60;1.00;;;;;;5076307;28;20032;-90
2023/04/14 12:44:56;;;;;;;5.95;2.45;;;16.40;1.00;;;;;;5041518;28;20044;-90
2023/04/14 12:47:27;;;;;;;8.95;2.60;;;16.60;1.00;;;;;;5061307;28;20484;-90
2023/04/14 12:49:53;;;;;;;6.65;2.13;;;17.20;1.00;;;;;;5043067;28;20037;-91
2023/04/14 12:52:36;;;;;;;6.47;2.17;;;16.60;1.00;;;;;;5025864;28;20396;-90
2023/04/14 12:55:03;;;;;;;5.85;2.20;;;16.10;99.90;;;;;;5042794;28;20045;-89
2023/04/14 12:57:30;;;;;;;6.38;2.20;;;16.30;99.90;;;;;;5025331;28;20060;-90